logo tempoitalia

Diretta Meteo Murcia-San Javier, Spagnalunedì 31 agosto ore 07:00

Mappa
Sereno 19 °C Sereno 24 Ore: T.min 18 T.max 29
Ponente Nord Km/h 5.5 Punto di rugiada: 16 °C Umidità: 82% Visibilità: 10 Km
Il sole sorge alle: 07:32 Il sole tramonta alle: 20:34
31 Agosto 2026 07:00 tempo osservato: Sereno Sereno 19 82 1016 vento: Nord N 5.5
31 Agosto 2026 06:30 tempo osservato: Sereno Sereno 19 88 1016 vento: Nord NO 7.4
31 Agosto 2026 06:00 tempo osservato: Sereno Sereno 19 88 1016 vento: Nord N 5.5
31 Agosto 2026 05:30 tempo osservato: Sereno Sereno 19 93 1016 vento: Nord N 5.5
31 Agosto 2026 05:00 tempo osservato: Foschia Foschia 20 88 1016 vento: Nord O/NO 11.1
31 Agosto 2026 04:30 tempo osservato: Sereno Sereno 20 88 1017 vento: Nord NO 9.3
31 Agosto 2026 04:00 tempo osservato: Sereno Sereno 20 93 1017 vento: Nord N 3.7
31 Agosto 2026 03:30 tempo osservato: Sereno Sereno 21 88 1017 vento: Nord N 5.5
31 Agosto 2026 03:00 tempo osservato: Sereno Sereno 22 88 1017 vento: Nord N 5.5
31 Agosto 2026 02:30 tempo osservato: Sereno Sereno 22 88 1017 vento: Nord O/SO 7.4
31 Agosto 2026 02:00 tempo osservato: Sereno Sereno 21 94 1017 vento: Nord O 7.4
31 Agosto 2026 01:30 tempo osservato: Sereno Sereno 22 88 1017 vento: Nord N 3.7
31 Agosto 2026 01:00 tempo osservato: Sereno Sereno 22 88 1017 vento: Nord N 5.5
31 Agosto 2026 00:30 tempo osservato: Sereno Sereno 22 88 1017 vento: Nord N 5.5
31 Agosto 2026 00:00 tempo osservato: Sereno Sereno 22 88 1017 vento: Nord N 5.5
30 Agosto 2026 23:30 tempo osservato: Sereno Sereno 23 83 1017 vento: Nord O 7.4
30 Agosto 2026 23:00 tempo osservato: Sereno Sereno 23 83 1017 vento: Nord N 5.5
30 Agosto 2026 22:30 tempo osservato: Sereno Sereno 25 73 1017 vento: Nord N 1.8
30 Agosto 2026 22:00 tempo osservato: Sereno Sereno 25 83 1016 vento: Nord N 5.5
30 Agosto 2026 21:30 tempo osservato: Sereno Sereno 26 73 1016 vento: Nord S/SE 9.3
30 Agosto 2026 21:00 tempo osservato: Sereno Sereno 26 73 1016 vento: Nord SE 7.4
30 Agosto 2026 20:30 tempo osservato: Sereno Sereno 26 78 1016 vento: Nord SE 7.4
30 Agosto 2026 20:00 tempo osservato: Sereno Sereno 27 74 1015 vento: Nord SE 9.3
30 Agosto 2026 19:30 tempo osservato: Sereno Sereno 28 74 1015 vento: Nord SE 13
30 Agosto 2026 19:00 tempo osservato: Sereno Sereno 28 69 1015 vento: Nord E/SE 14.8
30 Agosto 2026 18:30 tempo osservato: Sereno Sereno 28 74 1015 vento: Nord E/SE 14.8
30 Agosto 2026 18:00 tempo osservato: Sereno Sereno 28 74 1015 vento: Nord E/SE 13
30 Agosto 2026 17:30 tempo osservato: Sereno Sereno 29 70 1016 vento: Nord E 11.1
30 Agosto 2026 17:00 tempo osservato: Sereno Sereno 29 62 1016 vento: Nord E/SE 14.8
30 Agosto 2026 16:30 tempo osservato: Sereno Sereno 29 62 1016 vento: Nord E/SE 14.8
30 Agosto 2026 16:00 tempo osservato: Sereno Sereno 29 66 1016 vento: Nord E/SE 14.8
30 Agosto 2026 15:30 tempo osservato: Sereno Sereno 29 66 1017 vento: Nord E/SE 13
30 Agosto 2026 15:00 tempo osservato: Sereno Sereno 29 66 1017 vento: Nord E/SE 13
30 Agosto 2026 14:30 tempo osservato: Sereno Sereno 29 66 1017 vento: Nord E/SE 11.1
30 Agosto 2026 14:00 tempo osservato: Sereno Sereno 28 69 1018 vento: Nord E/SE 14.8
30 Agosto 2026 13:30 tempo osservato: Sereno Sereno 29 66 1018 vento: Nord E/SE 13
30 Agosto 2026 13:00 tempo osservato: Sereno Sereno 28 69 1018 vento: Nord E 9.3
30 Agosto 2026 12:30 tempo osservato: Sereno Sereno 27 69 1018 vento: Nord E 9.3
30 Agosto 2026 12:00 tempo osservato: Sereno Sereno 27 69 1018 vento: Nord N 7.4
30 Agosto 2026 11:30 tempo osservato: Sereno Sereno 26 73 1018 vento: Nord N 5.5
30 Agosto 2026 11:00 tempo osservato: Sereno Sereno 26 69 1018 vento: Nord N 5.5
30 Agosto 2026 10:30 tempo osservato: Sereno Sereno 25 73 1018 vento: Nord N 1.8
30 Agosto 2026 10:00 tempo osservato: Sereno Sereno 24 78 1018 vento: Nord N 1.8
30 Agosto 2026 09:30 tempo osservato: Sereno Sereno 23 78 1017 vento: Nord N 0
30 Agosto 2026 09:00 tempo osservato: Sereno Sereno 21 82 1017 vento: Nord N 3.7
30 Agosto 2026 08:30 tempo osservato: Sereno Sereno 19 93 1017 vento: Nord N 3.7
30 Agosto 2026 08:00 tempo osservato: Sereno Sereno 18 88 1017 vento: Nord N 3.7